Time;durP1;ratioP1;P1;durP2;ratioP2;P2;SDS_P1;SDS_P2;PMS_P1;PMS_P2;Temp;Humidity;BMP_temperature;BMP_pressure;BME280_temperature;BME280_humidity;BME280_pressure;Samples;Min_cycle;Max_cycle;Signal;HPM_P1;HPM_P2
2023/04/05 00:00:45;;;;;;;11.25;5.07;;;;;;;;;;4898561;29;20037;-81
2023/04/05 00:03:11;;;;;;;10.50;5.10;;;;;;;;;;4920626;29;20032;-80
2023/04/05 00:05:38;;;;;;;11.82;5.00;;;;;;;;;;4933186;29;20035;-81
2023/04/05 00:08:17;;;;;;;9.32;4.60;;;;;;;;;;4937300;29;20052;-83
2023/04/05 00:11:03;;;;;;;41.08;10.25;;;;;;;;;;4937183;29;20092;-80
2023/04/05 00:13:29;;;;;;;44.67;11.93;;;;;;;;;;4938717;29;20040;-82
2023/04/05 00:15:57;;;;;;;31.27;10.07;;;;;;;;;;4938034;29;20040;-80
2023/04/05 00:18:23;;;;;;;18.98;6.78;;;;;;;;;;4933539;29;20025;-81
2023/04/05 00:20:50;;;;;;;13.30;5.03;;;;;;;;;;4918300;29;20025;-83
2023/04/05 00:23:20;;;;;;;10.07;4.43;;;;;;;;;;4916337;29;20435;-80
2023/04/05 00:29:05;;;;;;;24.58;10.10;;;;;;;;;;4917230;29;20048;-82
2023/04/05 00:31:31;;;;;;;17.73;7.55;;;;;;;;;;4916332;29;20092;-80
2023/04/05 00:33:57;;;;;;;10.50;5.20;;;;;;;;;;4915634;29;20061;-81
2023/04/05 00:36:23;;;;;;;8.23;4.80;;;;;;;;;;4925085;29;20099;-81
2023/04/05 00:38:49;;;;;;;7.75;4.95;;;;;;;;;;4935906;29;20032;-81
2023/04/05 00:44:37;;;;;;;10.07;4.77;;;77.20;2227.20;;;;;;4936956;29;20068;-81
2023/04/05 00:47:05;;;;;;;9.63;4.75;;;76.90;2227.20;;;;;;4938927;29;20028;-81
2023/04/05 00:49:32;;;;;;;14.65;5.72;;;77.00;2227.20;;;;;;4940256;29;20043;-81
2023/04/05 00:51:59;;;;;;;37.47;10.80;;;;;;;;;;4926022;29;20447;-81
2023/04/05 00:54:28;;;;;;;73.88;19.75;;;;;;;;;;4900324;29;20047;-80
2023/04/05 00:57:13;;;;;;;19.52;7.70;;;;;;;;;;4900726;29;20022;-80
2023/04/05 00:59:39;;;;;;;14.60;6.45;;;;;;;;;;4900475;29;20056;-82
2023/04/05 01:02:24;;;;;;;9.32;5.18;;;;;;;;;;4894688;29;20056;-79
2023/04/05 01:04:55;;;;;;;10.48;4.97;;;;;;;;;;4891996;29;20161;-79
2023/04/05 01:07:30;;;;;;;11.02;5.40;;;;;;;;;;4899746;29;20029;-78
2023/04/05 01:09:57;;;;;;;8.55;4.70;;;;;;;;;;4906309;29;20048;-79
2023/04/05 01:12:25;;;;;;;9.35;5.05;;;;;;;;;;4906715;29;20024;-79
2023/04/05 01:14:52;;;;;;;10.27;4.45;;;;;;;;;;4908103;29;20489;-79
2023/04/05 01:17:22;;;;;;;10.88;5.47;;;;;;;;;;4906960;29;20053;-78
2023/04/05 01:19:58;;;;;;;10.68;4.72;;;;;;;;;;4906998;29;20064;-79
2023/04/05 01:22:42;;;;;;;11.05;5.03;;;;;;;;;;4905403;29;20025;-80
2023/04/05 01:28:18;;;;;;;10.32;5.00;;;;;;;;;;4886712;29;20052;-79
2023/04/05 01:30:49;;;;;;;9.32;4.80;;;;;;;;;;4888694;29;20032;-79
2023/04/05 01:33:18;;;;;;;11.65;4.72;;;;;;;;;;4889363;29;20021;-79
2023/04/05 01:36:04;;;;;;;8.02;4.95;;;;;;;;;;4888587;29;20116;-79
2023/04/05 01:38:31;;;;;;;11.40;5.32;;;;;;;;;;4891532;29;20096;-79
2023/04/05 01:40:57;;;;;;;10.18;4.88;;;;;;;;;;4912052;29;20037;-79
2023/04/05 01:43:23;;;;;;;8.95;4.90;;;;;;;;;;4908180;29;20028;-79
2023/04/05 01:45:49;;;;;;;9.23;5.22;;;;;;;;;;4908017;29;20033;-79
2023/04/05 01:48:15;;;;;;;9.23;5.07;;;;;;;;;;4906690;29;20096;-80
2023/04/05 01:50:41;;;;;;;9.38;5.30;;;;;;;;;;4905929;29;20092;-79
2023/04/05 01:53:08;;;;;;;9.70;4.90;;;;;;;;;;4905119;29;20036;-80
2023/04/05 01:55:34;;;;;;;8.40;4.70;;;;;;;;;;4904599;29;20094;-80
2023/04/05 01:58:00;;;;;;;11.05;5.22;;;;;;;;;;4920180;29;20122;-79
2023/04/05 02:00:26;;;;;;;8.68;5.32;;;;;;;;;;4925194;29;20039;-80
2023/04/05 02:02:52;;;;;;;8.63;5.05;;;;;;;;;;4925312;29;20039;-79
2023/04/05 02:05:18;;;;;;;10.18;4.93;;;;;;;;;;4925318;29;20032;-82
2023/04/05 02:07:45;;;;;;;9.43;4.80;;;;;;;;;;4925506;29;20036;-81
2023/04/05 02:10:11;;;;;;;9.52;4.88;;;;;;;;;;4925439;29;20032;-79
2023/04/05 02:12:37;;;;;;;8.05;4.53;;;;;;;;;;4911424;29;20055;-80
2023/04/05 02:15:03;;;;;;;9.63;5.07;;;;;;;;;;4890836;29;20048;-80
2023/04/05 02:17:38;;;;;;;8.93;4.50;;;;;;;;;;4905335;29;20056;-79
2023/04/05 02:20:06;;;;;;;10.82;4.55;;;;;;;;;;4906159;29;20031;-79
2023/04/05 02:22:32;;;;;;;10.52;5.30;;;;;;;;;;4905408;29;20047;-79
2023/04/05 02:24:58;;;;;;;11.63;5.90;;;;;;;;;;4905731;29;20065;-79
2023/04/05 02:27:24;;;;;;;10.18;4.95;;;;;;;;;;4904770;29;20041;-79
2023/04/05 02:29:51;;;;;;;9.25;5.30;;;;;;;;;;4903752;29;20052;-79
2023/04/05 02:32:17;;;;;;;9.55;5.20;;;;;;;;;;4904370;29;20116;-79
2023/04/05 02:34:45;;;;;;;9.30;5.45;;;;;;;;;;4903807;29;20035;-80
2023/04/05 02:37:11;;;;;;;8.85;5.28;;;;;;;;;;4904738;29;20036;-79
2023/04/05 02:39:37;;;;;;;9.48;5.38;;;;;;;;;;4904887;29;20088;-79
2023/04/05 02:42:03;;;;;;;8.95;4.95;;;;;;;;;;4905178;29;20486;-79
2023/04/05 02:44:29;;;;;;;9.10;4.82;;;;;;;;;;4905746;29;20048;-79
2023/04/05 02:46:55;;;;;;;8.73;4.68;;;77.00;2227.20;;;;;;4916005;29;20028;-79
2023/04/05 02:49:21;;;;;;;7.63;4.75;;;;;;;;;;4923193;29;20541;-79
2023/04/05 02:51:47;;;;;;;9.65;4.90;;;77.00;2227.20;;;;;;4923742;29;20088;-81
2023/04/05 02:54:13;;;;;;;9.73;4.88;;;;;;;;;;4923991;29;20036;-79
2023/04/05 02:56:39;;;;;;;8.93;4.93;;;;;;;;;;4923998;29;20027;-80
2023/04/05 02:59:05;;;;;;;9.45;4.88;;;;;;;;;;4923652;29;20479;-79
2023/04/05 03:01:31;;;;;;;10.75;5.05;;;;;;;;;;4906998;29;20032;-79
2023/04/05 03:03:57;;;;;;;10.18;4.68;;;;;;;;;;4917881;29;20180;-79
2023/04/05 03:06:25;;;;;;;9.80;5.28;;;;;;;;;;4922701;29;20100;-80
2023/04/05 03:08:52;;;;;;;8.65;4.68;;;;;;;;;;4923195;29;20386;-79
2023/04/05 03:11:19;;;;;;;8.60;5.25;;;;;;;;;;4923619;29;20028;-79
2023/04/05 03:13:45;;;;;;;9.00;5.00;;;;;;;;;;4923005;29;20035;-79
2023/04/05 03:16:11;;;;;;;10.60;5.35;;;;;;;;;;4921061;29;20044;-79
2023/04/05 03:18:37;;;;;;;9.45;5.20;;;;;;;;;;4921513;29;20048;-79
2023/04/05 03:21:04;;;;;;;8.90;5.05;;;;;;;;;;4907847;29;20097;-79
2023/04/05 03:23:31;;;;;;;10.32;5.15;;;;;;;;;;4904900;29;20471;-78
2023/04/05 03:26:18;;;;;;;10.07;5.28;;;;;;;;;;4907008;29;20119;-80
2023/04/05 03:28:45;;;;;;;8.93;5.03;;;;;;;;;;4922945;29;20133;-80
2023/04/05 03:31:13;;;;;;;11.30;5.00;;;;;;;;;;4915354;29;20053;-80
2023/04/05 03:33:39;;;;;;;11.25;5.28;;;;;;;;;;4905495;29;20036;-79
2023/04/05 03:36:05;;;;;;;10.73;5.20;;;;;;;;;;4904634;29;20028;-80
2023/04/05 03:38:31;;;;;;;15.25;5.80;;;;;;;;;;4904268;29;20040;-79
2023/04/05 03:41:03;;;;;;;11.82;5.95;;;;;;;;;;4905117;29;20032;-79
2023/04/05 03:43:29;;;;;;;12.98;6.07;;;;;;;;;;4903069;29;20061;-79
2023/04/05 03:45:55;;;;;;;10.93;5.72;;;;;;;;;;4887049;29;20035;-79
2023/04/05 03:48:21;;;;;;;12.10;5.65;;;;;;;;;;4902699;29;20096;-79
2023/04/05 03:50:48;;;;;;;10.95;5.57;;;;;;;;;;4904444;29;20541;-79
2023/04/05 03:53:17;;;;;;;13.27;5.57;;;;;;;;;;4904498;29;20021;-79
2023/04/05 03:55:48;;;;;;;12.00;6.15;;;;;;;;;;4905869;29;20029;-80
2023/04/05 03:58:14;;;;;;;12.13;6.35;;;;;;;;;;4902860;29;20020;-79
2023/04/05 04:00:40;;;;;;;11.52;5.90;;;;;;;;;;4905618;29;20036;-79
2023/04/05 04:03:08;;;;;;;11.25;5.90;;;;;;;;;;4906266;29;20029;-80
2023/04/05 04:05:37;;;;;;;10.60;5.70;;;;;;;;;;4909485;29;20032;-79
2023/04/05 04:08:05;;;;;;;11.40;6.30;;;;;;;;;;4910651;29;20040;-79
2023/04/05 04:10:31;;;;;;;13.20;6.32;;;;;;;;;;4912384;29;20033;-80
2023/04/05 04:12:57;;;;;;;12.10;5.70;;;;;;;;;;4912457;29;20084;-79
2023/04/05 04:15:24;;;;;;;11.93;6.00;;;;;;;;;;4906544;29;20021;-79
2023/04/05 04:17:50;;;;;;;12.32;6.22;;;;;;;;;;4910620;29;20045;-78
2023/04/05 04:20:16;;;;;;;11.32;6.22;;;;;;;;;;4911852;29;20033;-79
2023/04/05 04:22:44;;;;;;;13.70;6.10;;;;;;;;;;4916402;29;20032;-79
2023/04/05 04:25:13;;;;;;;14.38;7.00;;;;;;;;;;4917858;29;20029;-79
2023/04/05 04:27:42;;;;;;;10.43;5.88;;;;;;;;;;4913406;29;20032;-80
2023/04/05 04:30:13;;;;;;;12.65;5.97;;;;;;;;;;4920649;29;20064;-80
2023/04/05 04:32:56;;;;;;;12.98;6.80;;;;;;;;;;4910220;29;20031;-79
2023/04/05 04:35:23;;;;;;;14.05;7.05;;;;;;;;;;4915223;29;20036;-80
2023/04/05 04:37:59;;;;;;;11.57;6.72;;;;;;;;;;4923450;29;20355;-80
2023/04/05 04:40:37;;;;;;;11.48;6.53;;;;;;;;;;4893713;29;20044;-81
2023/04/05 04:43:25;;;;;;;13.15;6.88;;;;;;;;;;4895069;29;20049;-80
2023/04/05 04:45:54;;;;;;;11.38;6.57;;;;;;;;;;4898264;29;20033;-81
2023/04/05 04:48:20;;;;;;;12.85;6.95;;;;;;;;;;4884152;29;20049;-81
2023/04/05 04:50:56;;;;;;;13.35;7.20;;;;;;;;;;4918386;29;20035;-82
2023/04/05 04:53:22;;;;;;;14.45;7.20;;;;;;;;;;4936198;29;20064;-81
2023/04/05 04:55:58;;;;;;;12.13;6.90;;;;;;;;;;4939059;29;20044;-81
2023/04/05 05:02:04;;;;;;;15.40;7.65;;;;;;;;;;4919857;23;20123;-81
2023/04/05 05:04:31;;;;;;;14.98;7.38;;;;;;;;;;4926472;29;20056;-81
2023/04/05 05:06:58;;;;;;;12.30;6.78;;;;;;;;;;4922432;29;20020;-81
2023/04/05 05:09:26;;;;;;;14.98;7.32;;;;;;;;;;4935488;29;20040;-81
2023/04/05 05:12:10;;;;;;;15.15;7.63;;;;;;;;;;4931263;29;20033;-81
2023/04/05 05:14:36;;;;;;;;;;;;;;;;;;4931632;29;20047;-81
2023/04/05 05:17:07;;;;;;;13.48;7.30;;;;;;;;;;4937229;29;19892;-82
2023/04/05 05:19:35;;;;;;;14.55;8.10;;;;;;;;;;4934467;29;20035;-82
2023/04/05 05:22:02;;;;;;;14.35;7.43;;;;;;;;;;4931771;29;20037;-80
2023/04/05 05:24:30;;;;;;;13.50;7.10;;;;;;;;;;4933479;29;20069;-81
2023/04/05 05:27:03;;;;;;;14.18;7.25;;;;;;;;;;4923290;29;20073;-81
2023/04/05 05:29:31;;;;;;;13.57;7.60;;;;;;;;;;4936369;28;20051;-83
2023/04/05 05:32:01;;;;;;;17.02;8.15;;;;;;;;;;4942134;28;20107;-82
2023/04/05 05:34:32;;;;;;;12.98;7.60;;;;;;;;;;4938839;29;20020;-83
2023/04/05 05:36:58;;;;;;;14.68;7.93;;;;;;;;;;4931449;29;20084;-81
2023/04/05 05:39:24;;;;;;;15.93;9.40;;;;;;;;;;4909679;29;20059;-81
2023/04/05 05:42:20;;;;;;;16.52;9.43;;;;;;;;;;4921180;29;20062;-81
2023/04/05 05:44:46;;;;;;;16.98;8.45;;;;;;;;;;4928333;29;20020;-81
2023/04/05 05:47:12;;;;;;;14.23;8.57;;;;;;;;;;4932454;29;20031;-81
2023/04/05 05:49:39;;;;;;;17.92;9.20;;;;;;;;;;4928633;29;20047;-82
2023/04/05 05:52:07;;;;;;;13.98;8.45;;;;;;;;;;4940167;29;20040;-82
2023/04/05 05:54:33;;;;;;;14.15;7.85;;;;;;;;;;4926913;29;20032;-82
2023/04/05 06:00:07;;;;;;;17.08;8.27;;;;;;;;;;4932246;29;20031;-81
2023/04/05 06:02:34;;;;;;;15.65;8.80;;;;;;;;;;4927794;29;20037;-81
2023/04/05 06:05:00;;;;;;;16.30;9.13;;;;;;;;;;4910739;29;20044;-81
2023/04/05 06:07:27;;;;;;;13.18;8.02;;;;;;;;;;4922669;29;20080;-81
2023/04/05 06:09:53;;;;;;;13.98;8.65;;;;;;;;;;4921118;29;20064;-81
2023/04/05 06:12:23;;;;;;;15.32;8.82;;;;;;;;;;4923606;29;20028;-81
2023/04/05 06:14:49;;;;;;;15.27;11.50;;;;;;;;;;4916577;29;20021;-81
2023/04/05 06:17:15;;;;;;;17.75;9.23;;;;;;;;;;4921753;29;20031;-81
2023/04/05 06:19:41;;;;;;;15.48;8.80;;;;;;;;;;4918474;29;20039;-81
2023/04/05 06:22:07;;;;;;;17.25;8.77;;;;;;;;;;4929828;29;20028;-81
2023/04/05 06:24:33;;;;;;;16.98;8.73;;;;;;;;;;4928316;29;20037;-83
2023/04/05 06:27:00;;;;;;;18.77;10.20;;;;;;;;;;4917282;29;20119;-81
2023/04/05 06:33:02;;;;;;;14.68;9.07;;;;;;;;;;4915500;29;20093;-80
2023/04/05 06:35:28;;;;;;;12.13;8.43;;;308.00;1433.60;;;;;;4914359;29;20032;-81
2023/04/05 06:37:54;;;;;;;12.38;8.77;;;358.90;1331.20;;;;;;4915772;29;20032;-81
2023/04/05 06:40:20;;;;;;;12.52;8.15;;;384.00;1228.80;;;;;;4913153;29;20394;-82
2023/04/05 06:42:45;;;;;;;15.57;8.73;;;384.50;1203.20;;;;;;4924098;29;20034;-81
2023/04/05 06:45:11;;;;;;;13.90;8.25;;;333.70;1280.00;;;;;;4914042;29;20029;-80
2023/04/05 06:47:38;;;;;;;19.65;10.30;;;307.30;1356.80;;;;;;4923977;29;20028;-80
2023/04/05 06:50:06;;;;;;;34.30;14.75;;;307.90;1356.80;;;;;;4916882;29;20068;-80
2023/04/05 06:52:32;;;;;;;16.92;9.38;;;308.10;1331.20;;;;;;4919578;29;20029;-80
2023/04/05 06:54:58;;;;;;;21.90;10.73;;;359.10;1228.80;;;;;;4924140;29;20020;-80
2023/04/05 07:00:46;;;;;;;17.00;9.30;;;;;;;;;;4914795;29;20052;-81
2023/04/05 07:03:12;;;;;;;18.08;10.10;;;;;;;;;;4911398;29;20471;-80
2023/04/05 07:05:38;;;;;;;19.92;11.10;;;487.20;947.20;;;;;;4916235;29;20398;-81
2023/04/05 07:08:04;;;;;;;16.42;9.63;;;486.60;998.40;;;;;;4916124;29;20048;-81
2023/04/05 07:10:29;;;;;;;23.33;11.82;;;409.70;1100.80;;;;;;4913599;29;20037;-80
2023/04/05 07:12:56;;;;;;;17.48;10.60;;;333.50;1228.80;;;;;;4914999;29;20028;-79
2023/04/05 07:15:22;;;;;;;12.93;8.30;;;;;;;;;;4923012;29;20031;-79
2023/04/05 07:17:48;;;;;;;13.38;8.82;;;282.10;1382.40;;;;;;4897890;29;20034;-79
2023/04/05 07:20:15;;;;;;;14.25;9.05;;;282.00;2022.40;;;;;;4929770;29;20020;-79
2023/04/05 07:22:40;;;;;;;20.35;11.27;;;256.40;1433.60;;;;;;4930005;29;20036;-78
2023/04/05 07:25:08;;;;;;;19.85;10.65;;;;;;;;;;4916849;29;20498;-79
2023/04/05 07:30:38;;;;;;;17.02;9.98;;;;;;;;;;4919286;29;20407;-78
2023/04/05 07:33:04;;;;;;;14.85;8.85;;;;;;;;;;4926636;29;20032;-79
2023/04/05 07:35:30;;;;;;;15.57;8.90;;;;;;;;;;4916347;29;20028;-79
2023/04/05 07:37:56;;;;;;;18.00;9.50;;;;;;;;;;4917506;29;20056;-78
2023/04/05 07:40:22;;;;;;;16.35;9.32;;;;;;;;;;4915546;29;20021;-78
2023/04/05 07:42:48;;;;;;;15.90;9.77;;;;;;;;;;4924724;29;20040;-78
2023/04/05 07:45:15;;;;;;;14.55;8.55;;;;;;;;;;4920787;29;20027;-79
2023/04/05 07:47:41;;;;;;;14.55;9.05;;;;;;;;;;4922755;29;20028;-79
2023/04/05 07:50:08;;;;;;;13.07;8.18;;;;;;;;;;4917879;29;20035;-79
2023/04/05 07:52:35;;;;;;;15.30;8.63;;;;;;;;;;4912569;29;21346;-80
2023/04/05 07:55:01;;;;;;;14.07;8.27;;;;;;;;;;4907997;29;20114;-79
2023/04/05 07:57:27;;;;;;;13.60;9.05;;;;;;;;;;4923891;29;20021;-80
2023/04/05 07:59:54;;;;;;;10.40;7.55;;;;;;;;;;4911037;29;20064;-80
2023/04/05 08:02:20;;;;;;;13.02;7.63;;;;;;;;;;4913075;29;20440;-80
2023/04/05 08:04:47;;;;;;;17.25;8.70;;;;;;;;;;4918718;29;20071;-79
2023/04/05 08:07:13;;;;;;;12.38;8.10;;;;;;;;;;4920527;29;20159;-80
2023/04/05 08:09:39;;;;;;;11.85;7.18;;;;;;;;;;4915648;29;20044;-81
2023/04/05 08:12:05;;;;;;;9.60;6.40;;;;;;;;;;4913338;29;20527;-79
2023/04/05 08:14:50;;;;;;;10.48;6.65;;;;;;;;;;4920919;29;20043;-80
2023/04/05 08:17:16;;;;;;;;;;;;;;;;;;4907849;29;20483;-79
2023/04/05 08:19:43;;;;;;;12.95;8.60;;;;;;;;;;4912827;29;19912;-79
2023/04/05 08:22:09;;;;;;;16.58;9.02;;;;;;;;;;4925229;29;20080;-79
2023/04/05 08:24:35;;;;;;;12.38;7.97;;;;;;;;;;4928972;29;20027;-77
2023/04/05 08:27:01;;;;;;;11.45;7.80;;;;;;;;;;4914532;29;20021;-80
2023/04/05 08:29:27;;;;;;;10.77;6.97;;;;;;;;;;4924602;29;20486;-80
2023/04/05 08:31:56;;;;;;;16.52;8.82;;;;;;;;;;4932005;29;20032;-80
2023/04/05 08:34:22;;;;;;;12.23;7.95;;;;;;;;;;4911418;29;20115;-79
2023/04/05 08:36:48;;;;;;;13.18;7.63;;;;;;;;;;4917358;29;20032;-81
2023/04/05 08:39:14;;;;;;;12.65;7.97;;;;;;;;;;4921974;29;20035;-78
2023/04/05 08:41:41;;;;;;;12.80;7.38;;;;;;;;;;4919829;29;20037;-79
2023/04/05 08:44:09;;;;;;;12.77;8.25;;;;;;;;;;4915940;29;20033;-80
2023/04/05 08:46:36;;;;;;;12.55;8.40;;;;;;;;;;4913087;29;20024;-79
2023/04/05 08:49:10;;;;;;;12.75;7.85;;;;;;;;;;4912907;29;20162;-82
2023/04/05 08:51:39;;;;;;;12.20;7.77;;;;;;;;;;4910785;29;20028;-80
2023/04/05 08:54:05;;;;;;;12.55;7.68;;;;;;;;;;4915236;29;20549;-80
2023/04/05 08:56:33;;;;;;;12.35;8.02;;;;;;;;;;4923741;29;20029;-80
2023/04/05 08:59:02;;;;;;;14.20;8.32;;;;;;;;;;4918187;29;20066;-79
2023/04/05 09:01:29;;;;;;;15.95;9.82;;;;;;;;;;4923068;29;20036;-80
2023/04/05 09:03:57;;;;;;;15.82;8.88;;;;;;;;;;4924565;29;20071;-79
2023/04/05 09:06:23;;;;;;;12.20;7.78;;;;;;;;;;4923370;29;20367;-80
2023/04/05 09:08:49;;;;;;;12.80;8.18;;;;;;;;;;4923938;29;20148;-82
2023/04/05 09:11:16;;;;;;;10.27;7.30;;;;;;;;;;4908760;29;20035;-79
2023/04/05 09:14:04;;;;;;;14.45;8.88;;;;;;;;;;4905917;29;20036;-79
2023/04/05 09:16:36;;;;;;;12.20;7.50;;;;;;;;;;4916117;29;20040;-79
2023/04/05 09:19:02;;;;;;;13.45;8.00;;;;;;;;;;4914260;29;20036;-80
2023/04/05 09:21:28;;;;;;;12.45;7.80;;;;;;;;;;4917480;29;20052;-81
2023/04/05 09:23:55;;;;;;;13.80;8.70;;;;;;;;;;4911256;29;20056;-80
2023/04/05 09:26:22;;;;;;;10.38;7.70;;;;;;;;;;4921336;29;20043;-79
2023/04/05 09:28:48;;;;;;;13.27;7.95;;;;;;;;;;4904754;29;20049;-79
2023/04/05 09:31:33;;;;;;;12.82;7.50;;;;;;;;;;4906274;29;20115;-79
2023/04/05 09:34:02;;;;;;;11.77;7.30;;;;;;;;;;4917243;29;20032;-78
2023/04/05 09:36:28;;;;;;;21.20;10.18;;;;;;;;;;4908890;29;20020;-77
2023/04/05 09:39:04;;;;;;;14.25;8.13;;;;;;;;;;4921150;29;20040;-78
2023/04/05 09:41:30;;;;;;;13.77;8.20;;;;;;;;;;4921921;29;20823;-78
2023/04/05 09:43:56;;;;;;;10.88;6.82;;;;;;;;;;4923427;29;20035;-80
2023/04/05 09:46:30;;;;;;;14.32;7.93;;;;;;;;;;4906409;29;20035;-79
2023/04/05 09:48:57;;;;;;;14.00;8.30;;;;;;;;;;4902623;29;20096;-80
2023/04/05 09:51:23;;;;;;;11.00;6.97;;;;;;;;;;4904865;29;20096;-80
2023/04/05 09:53:59;;;;;;;12.30;7.43;;;;;;;;;;4908752;29;20028;-79
2023/04/05 09:56:26;;;;;;;13.23;7.07;;;;;;;;;;4902810;29;20047;-80
2023/04/05 09:58:52;;;;;;;10.43;7.32;;;;;;;;;;4905181;29;20111;-79
2023/04/05 10:01:20;;;;;;;13.27;8.90;;;;;;;;;;4902728;29;20120;-78
2023/04/05 10:03:47;;;;;;;12.90;7.38;;;;;;;;;;4902740;29;20048;-78
2023/04/05 10:06:13;;;;;;;16.45;8.18;;;;;;;;;;4902481;29;20032;-78
2023/04/05 10:08:40;;;;;;;16.13;8.70;;;;;;;;;;4906216;29;20041;-79
2023/04/05 10:11:06;;;;;;;18.95;10.82;;;;;;;;;;4890962;29;20085;-79
2023/04/05 10:13:33;;;;;;;11.35;6.95;;;;;;;;;;4897860;29;20088;-80
2023/04/05 10:16:00;;;;;;;11.05;7.15;;;;;;;;;;4925188;29;20028;-79
2023/04/05 10:18:31;;;;;;;12.20;7.95;;;;;;;;;;4918395;29;20059;-79
2023/04/05 10:20:57;;;;;;;13.02;8.00;;;;;;;;;;4904087;29;20100;-79
2023/04/05 10:23:32;;;;;;;12.38;7.30;;;;;;;;;;4904852;29;20032;-79
2023/04/05 10:26:08;;;;;;;15.77;10.10;;;;;;;;;;4905198;29;20028;-80
2023/04/05 10:28:35;;;;;;;13.88;8.52;;;;;;;;;;4904678;29;20068;-78
2023/04/05 10:31:06;;;;;;;10.68;7.32;;;307.50;1356.80;;;;;;4905943;29;20084;-78
2023/04/05 10:33:38;;;;;;;12.98;7.60;;;;;;;;;;4902762;29;20435;-80
2023/04/05 10:36:30;;;;;;;16.60;10.23;;;282.20;1331.20;;;;;;4903264;29;20029;-80
2023/04/05 10:39:24;;;;;;;11.73;7.70;;;282.10;2150.40;;;;;;4902999;29;20032;-79
2023/04/05 10:41:56;;;;;;;18.45;11.32;;;;;;;;;;4919366;29;20461;-80
2023/04/05 10:44:22;;;;;;;16.98;9.68;;;;;;;;;;4920211;29;20527;-80
2023/04/05 10:46:50;;;;;;;16.10;8.68;;;;;;;;;;4919256;29;20385;-79
2023/04/05 10:49:16;;;;;;;11.77;7.30;;;;;;;;;;4921701;29;20450;-79
2023/04/05 10:51:43;;;;;;;12.77;8.02;;;;;;;;;;4920303;29;20024;-80
2023/04/05 10:54:10;;;;;;;11.65;7.30;;;;;;;;;;4914120;29;20031;-79
2023/04/05 10:56:37;;;;;;;12.55;8.30;;;;;;;;;;4885886;29;20033;-81
2023/04/05 11:02:06;;;;;;;18.45;11.23;;;;;;;;;;4911142;29;20048;-81
2023/04/05 11:04:33;;;;;;;16.80;9.27;;;;;;;;;;4911652;29;20577;-80
2023/04/05 11:07:15;;;;;;;14.75;9.00;;;;;;;;;;4925473;29;20084;-80
2023/04/05 11:09:53;;;;;;;14.38;8.43;;;;;;;;;;4925854;29;20064;-79
2023/04/05 11:12:19;;;;;;;12.60;8.18;;;;;;;;;;4921959;29;20028;-79
2023/04/05 11:14:45;;;;;;;14.25;8.07;;;;;;;;;;4928502;29;20020;-82
2023/04/05 11:17:28;;;;;;;16.05;8.85;;;;;;;;;;4930159;29;20031;-83
2023/04/05 11:20:04;;;;;;;13.35;8.20;;;;;;;;;;4923727;29;20115;-80
2023/04/05 11:22:30;;;;;;;15.15;8.68;;;;;;;;;;4906864;29;20043;-80
2023/04/05 11:25:01;;;;;;;11.35;7.20;;;;;;;;;;4922407;29;20054;-79
2023/04/05 11:27:36;;;;;;;10.55;6.78;;;;;;;;;;4922213;29;20035;-79
2023/04/05 11:30:03;;;;;;;13.57;8.15;;;;;;;;;;4919516;29;20036;-78
2023/04/05 11:32:39;;;;;;;13.15;7.45;;;;;;;;;;4919859;29;20048;-77
2023/04/05 11:35:06;;;;;;;11.70;6.22;;;;;;;;;;4923653;29;20071;-79
2023/04/05 11:37:51;;;;;;;14.65;8.15;;;;;;;;;;4926504;29;20497;-79
2023/04/05 11:40:24;;;;;;;12.90;8.18;;;;;;;;;;4912482;29;20084;-80
2023/04/05 11:42:57;;;;;;;15.65;9.40;;;;;;;;;;4890328;29;20036;-79
2023/04/05 11:45:23;;;;;;;15.88;9.70;;;256.70;1587.20;;;;;;4905776;29;20061;-79
2023/04/05 11:47:49;;;;;;;13.35;8.73;;;256.40;1408.00;;;;;;4905041;29;20025;-80
2023/04/05 11:50:15;;;;;;;18.60;10.43;;;256.30;1382.40;;;;;;4905430;29;20043;-80
2023/04/05 11:52:41;;;;;;;18.23;10.40;;;256.10;1408.00;;;;;;4905857;29;20021;-79
2023/04/05 11:55:07;;;;;;;18.08;10.52;;;;;;;;;;4906686;29;20028;-80
2023/04/05 11:57:36;;;;;;;17.42;9.85;;;;;;;;;;4906539;29;20025;-80
2023/04/05 12:00:03;;;;;;;13.02;8.18;;;;;;;;;;4906935;29;20033;-81
2023/04/05 12:02:34;;;;;;;12.95;8.27;;;;;;;;;;4907978;29;20035;-81
2023/04/05 12:05:00;;;;;;;17.27;9.60;;;;;;;;;;4922696;29;20092;-81
2023/04/05 12:07:28;;;;;;;14.85;9.38;;;;;;;;;;4928829;29;20040;-82
2023/04/05 12:10:07;;;;;;;40.47;19.58;;;;;;;;;;4927082;29;20069;-81
2023/04/05 12:12:37;;;;;;;23.10;13.05;;;;;;;;;;4918533;29;20029;-81
2023/04/05 12:15:35;;;;;;;27.00;12.65;;;;;;;;;;4912093;29;20024;-80
2023/04/05 12:18:01;;;;;;;16.60;9.85;;;;;;;;;;4922170;29;20037;-80
2023/04/05 12:20:27;;;;;;;16.10;9.07;;;;;;;;;;4922276;29;20028;-81
2023/04/05 12:22:55;;;;;;;17.25;10.77;;;;;;;;;;4911880;29;20034;-79
2023/04/05 12:25:21;;;;;;;14.20;8.82;;;;;;;;;;4924582;29;20047;-81
2023/04/05 12:27:47;;;;;;;12.30;7.55;;;;;;;;;;4908858;29;20042;-81
2023/04/05 12:30:15;;;;;;;12.43;7.43;;;;;;;;;;4923481;29;20209;-79
2023/04/05 12:32:45;;;;;;;12.95;8.25;;;;;;;;;;4923074;29;20088;-81
2023/04/05 12:35:12;;;;;;;15.18;9.75;;;;;;;;;;4915151;29;20040;-80
2023/04/05 12:37:39;;;;;;;13.00;7.20;;;;;;;;;;4919293;29;20028;-80
2023/04/05 12:40:05;;;;;;;9.63;6.50;;;;;;;;;;4907532;29;20111;-79
2023/04/05 12:42:35;;;;;;;11.88;7.43;;;;;;;;;;4928036;29;20059;-80
2023/04/05 12:45:03;;;;;;;14.35;8.10;;;;;;;;;;4911997;29;20506;-80
2023/04/05 12:47:29;;;;;;;13.07;7.28;;;;;;;;;;4910065;29;20111;-80
2023/04/05 12:49:55;;;;;;;19.23;9.35;;;;;;;;;;4907576;29;20033;-79
2023/04/05 12:52:21;;;;;;;17.42;8.95;;;;;;;;;;4913556;29;20122;-81
2023/04/05 12:54:54;;;;;;;12.73;7.40;;;;;;;;;;4926262;29;20028;-80
2023/04/05 12:57:29;;;;;;;13.07;7.32;;;;;;;;;;4910353;29;20037;-78
2023/04/05 12:59:55;;;;;;;21.70;10.38;;;;;;;;;;4910071;29;20118;-79
2023/04/05 13:02:22;;;;;;;16.00;8.43;;;;;;;;;;4915188;29;20037;-80
2023/04/05 13:04:48;;;;;;;11.45;7.43;;;;;;;;;;4927705;29;20052;-82
2023/04/05 13:07:14;;;;;;;13.05;8.00;;;;;;;;;;4937411;29;20036;-83
2023/04/05 13:09:40;;;;;;;13.50;8.98;;;;;;;;;;4936493;29;20031;-81
2023/04/05 13:12:06;;;;;;;12.70;7.28;;;;;;;;;;4934788;29;20080;-81
2023/04/05 13:14:32;;;;;;;14.18;8.00;;;;;;;;;;4933329;29;20096;-81
2023/04/05 13:16:58;;;;;;;12.15;7.55;;;;;;;;;;4930573;29;20051;-80
2023/04/05 13:19:24;;;;;;;11.82;7.18;;;;;;;;;;4917753;29;20028;-80
2023/04/05 13:21:50;;;;;;;14.77;8.95;;;;;;;;;;4931273;29;20046;-79
2023/04/05 13:24:16;;;;;;;12.50;8.32;;;;;;;;;;4933480;29;20056;-82
2023/04/05 13:26:42;;;;;;;10.95;7.25;;;;;;;;;;4933182;29;20099;-80
2023/04/05 13:29:09;;;;;;;11.00;6.70;;;;;;;;;;4933154;29;20036;-80
2023/04/05 13:31:35;;;;;;;13.13;7.65;;;;;;;;;;4935374;29;20032;-79
2023/04/05 13:34:01;;;;;;;11.40;7.85;;;;;;;;;;4910024;29;20036;-79
2023/04/05 13:36:27;;;;;;;14.48;8.95;;;;;;;;;;4933120;29;20028;-79
2023/04/05 13:38:53;;;;;;;12.82;8.43;;;;;;;;;;4932366;29;20109;-79
2023/04/05 13:41:20;;;;;;;12.43;7.97;;;;;;;;;;4930238;29;20528;-81
2023/04/05 13:43:46;;;;;;;15.60;9.73;;;;;;;;;;4927327;29;20040;-81
2023/04/05 13:49:15;;;;;;;13.52;9.38;;;;;;;;;;4927760;29;20115;-82
2023/04/05 13:51:42;;;;;;;11.77;7.78;;;;;;;;;;4931949;29;20064;-81
2023/04/05 13:54:10;;;;;;;14.00;7.55;;;;;;;;;;4921642;29;20033;-84
2023/04/05 13:56:36;;;;;;;15.27;9.02;;;;;;;;;;4927311;29;20027;-79
2023/04/05 13:59:02;;;;;;;13.70;8.32;;;;;;;;;;4910785;29;20032;-79
2023/04/05 14:01:28;;;;;;;15.68;9.10;;;;;;;;;;4926892;29;20016;-79
2023/04/05 14:03:54;;;;;;;14.20;9.40;;;;;;;;;;4930787;29;20067;-79
2023/04/05 14:06:21;;;;;;;14.45;9.85;;;;;;;;;;4933556;29;20032;-80
2023/04/05 14:08:47;;;;;;;13.85;7.15;;;;;;;;;;4936110;29;20046;-81
2023/04/05 14:11:13;;;;;;;11.18;6.88;;;;;;;;;;4935480;29;20074;-80
2023/04/05 14:13:39;;;;;;;15.63;9.95;;;;;;;;;;4924868;29;20497;-82
2023/04/05 14:16:05;;;;;;;14.25;10.07;;;;;;;;;;4912950;29;20039;-84
2023/04/05 14:18:31;;;;;;;16.00;8.10;;;;;;;;;;4936639;29;20036;-80
2023/04/05 14:20:58;;;;;;;10.88;7.05;;;;;;;;;;4928162;29;20023;-80
2023/04/05 14:23:25;;;;;;;15.55;9.25;;;;;;;;;;4925821;29;20054;-80
2023/04/05 14:25:52;;;;;;;22.60;13.00;;;;;;;;;;4923868;29;20028;-82
2023/04/05 14:28:19;;;;;;;16.92;10.82;;;;;;;;;;4917249;29;20051;-81
2023/04/05 14:30:45;;;;;;;18.38;11.40;;;;;;;;;;4912790;29;20079;-80
2023/04/05 14:33:13;;;;;;;16.90;10.82;;;;;;;;;;4920962;29;20040;-81
2023/04/05 14:35:40;;;;;;;22.02;13.48;;;256.30;1356.80;;;;;;4922925;29;20472;-80
2023/04/05 14:38:05;;;;;;;25.40;13.95;;;231.20;1408.00;;;;;;4923086;29;20043;-80
2023/04/05 14:40:31;;;;;;;21.63;12.23;;;231.30;1408.00;;;;;;4924047;29;20024;-81
2023/04/05 14:42:57;;;;;;;14.38;9.25;;;231.30;1408.00;;;;;;4926516;29;20028;-82
2023/04/05 14:48:45;;;;;;;13.88;9.20;;;256.10;1382.40;;;;;;4930579;29;20059;-81
2023/04/05 14:51:11;;;;;;;11.57;8.52;;;256.00;1408.00;;;;;;4928948;29;20047;-81
2023/04/05 14:53:37;;;;;;;14.25;9.32;;;256.10;1408.00;;;;;;4927519;29;20036;-81
2023/04/05 14:56:03;;;;;;;17.20;10.85;;;231.30;1433.60;;;;;;4925684;29;20043;-81